Time;durP1;ratioP1;P1;durP2;ratioP2;P2;SDS_P1;SDS_P2;PMS_P1;PMS_P2;Temp;Humidity;BMP_temperature;BMP_pressure;BME280_temperature;BME280_humidity;BME280_pressure;Samples;Min_cycle;Max_cycle;Signal;HPM_P1;HPM_P2
2022/02/12 00:02:13;;;;;;;;;;;;;;;;;;5038439;28;20615;-78
2022/02/12 00:04:39;;;;;;;;;;;;;;;;;;5036839;28;19959;-78
2022/02/12 00:07:05;;;;;;;;;;;;;;;;;;5038381;28;19975;-77
2022/02/12 00:09:31;;;;;;;;;;;;;;;;;;5039046;28;19937;-78
2022/02/12 00:11:57;;;;;;;;;;;;;;;;;;5035963;28;19948;-78
2022/02/12 00:14:24;;;;;;;;;;;;;;;;;;5038502;28;19974;-78
2022/02/12 00:16:50;;;;;;;;;;;;;;;;;;5037428;28;20212;-78
2022/02/12 00:19:16;;;;;;;;;;;;;;;;;;5039902;28;19960;-79
2022/02/12 00:21:42;;;;;;;;;;;;;;;;;;5024107;28;19941;-78
2022/02/12 00:24:08;;;;;;;;;;;;;;;;;;5006753;28;20003;-78
2022/02/12 00:26:35;;;;;;;;;;;;;;;;;;5047289;28;20384;-78
2022/02/12 00:29:01;;;;;;;;;;;;;;;;;;5047519;28;19952;-78
2022/02/12 00:31:27;;;;;;;;;;;;;;;;;;5041114;28;20039;-78
2022/02/12 00:33:54;;;;;;;;;;;;;;;;;;5044053;28;19964;-78
2022/02/12 00:36:20;;;;;;;;;;;;;;;;;;5045122;28;20399;-78
2022/02/12 00:38:46;;;;;;;;;;;;;;;;;;5045940;28;20019;-78
2022/02/12 00:41:12;;;;;;;;;;;;;;;;;;5024313;28;19960;-78
2022/02/12 00:43:38;;;;;;;;;;;;;;;;;;5030066;28;19953;-79
2022/02/12 00:46:05;;;;;;;;;;;;;;;;;;5042099;28;19956;-77
2022/02/12 00:48:31;;;;;;;;;;;;;;;;;;5041113;28;19956;-78
2022/02/12 00:51:00;;;;;;;;;;;;;;;;;;5034313;28;19945;-78
2022/02/12 00:53:26;;;;;;;;;;;;;;;;;;5043127;28;19963;-78
2022/02/12 00:55:52;;;;;;;;;;;;;;;;;;5019134;28;19948;-77
2022/02/12 00:58:19;;;;;;;;;;;;;;;;;;5042290;28;19987;-77
2022/02/12 01:00:45;;;;;;;;;;;;;;;;;;5039888;28;19963;-79
2022/02/12 01:03:11;;;;;;;;;;;;;;;;;;5041907;28;20349;-77
2022/02/12 01:05:37;;;;;;;;;;;;;;;;;;5039284;28;20389;-78
2022/02/12 01:08:04;;;;;;;;;;;;;;;;;;5040731;28;20016;-78
2022/02/12 01:10:30;;;;;;;;;;;;;;;;;;5040325;28;20447;-79
2022/02/12 01:12:57;;;;;;;;;;;;;;;;;;5040003;28;20352;-77
2022/02/12 01:15:23;;;;;;;;;;;;;;;;;;5039653;28;20021;-78
2022/02/12 01:17:49;;;;;;;;;;;;;;;;;;5038405;28;19971;-77
2022/02/12 01:20:15;;;;;;;;;;;;;;;;;;5047152;28;19967;-77
2022/02/12 01:22:42;;;;;;;;;;;;;;;;;;5038641;28;20351;-77
2022/02/12 01:25:08;;;;;;;;;;;;;;;;;;5045069;28;19956;-77
2022/02/12 01:27:35;;;;;;;;;;;;;;;;;;5042352;28;19956;-76
2022/02/12 01:30:01;;;;;;;;;;;;;;;;;;5039101;28;19940;-76
2022/02/12 01:32:28;;;;;;;;;;;;;;;;;;5041177;28;19964;-76
2022/02/12 01:34:55;;;;;;;;;;;;;;;;;;5045800;28;19960;-76
2022/02/12 01:37:21;;;;;;;;;;;;;;;;;;5011040;28;19960;-76
2022/02/12 01:39:47;;;;;;;;;;;;;;;;;;5044314;28;20410;-76
2022/02/12 01:42:14;;;;;;;;;;;;;;;;;;5048431;28;19948;-76
2022/02/12 01:44:40;;;;;;;;;;;;;;;;;;5024543;28;19957;-77
2022/02/12 01:47:06;;;;;;;;;;;;;;;;;;5044284;28;20400;-76
2022/02/12 01:49:32;;;;;;;;;;;;;;;;;;5036186;28;19967;-77
2022/02/12 01:51:59;;;;;;;;;;;;;;;;;;5026525;28;19955;-77
2022/02/12 01:54:25;;;;;;;;;;;;;;;;;;5026329;28;19967;-77
2022/02/12 01:56:51;;;;;;;;;;;;;;;;;;5044661;28;19952;-76
2022/02/12 01:59:17;;;;;;;;;;;;;;;;;;5046257;28;20014;-77
2022/02/12 02:01:43;;;;;;;;;;;;;;;;;;5048344;28;19964;-76
2022/02/12 02:04:10;;;;;;;;;;;;;;;;;;5044092;28;19956;-77
2022/02/12 02:06:36;;;;;;;;;;;;;;;;;;5042559;28;19948;-76
2022/02/12 02:09:03;;;;;;;;;;;;;;;;;;5045885;28;19956;-77
2022/02/12 02:11:30;;;;;;;;;;;;;;;;;;5046462;28;20019;-77
2022/02/12 02:13:56;;;;;;;;;;;;;;;;;;5039319;28;19976;-77
2022/02/12 02:16:22;;;;;;;;;;;;;;;;;;5044103;28;19964;-77
2022/02/12 02:18:48;;;;;;;;;;;;;;;;;;5043597;28;19990;-77
2022/02/12 02:21:14;;;;;;;;;;;;;;;;;;5044700;28;19970;-77
2022/02/12 02:23:40;;;;;;;;;;;;;;;;;;5041264;28;19952;-77
2022/02/12 02:26:08;;;;;;;;;;;;;;;;;;5041091;28;19963;-77
2022/02/12 02:28:34;;;;;;;;;;;;;;;;;;5046982;28;19960;-77
2022/02/12 02:31:01;;;;;;;;;;;;;;;;;;5047372;28;19960;-77
2022/02/12 02:33:27;;;;;;;;;;;;;;;;;;5048532;28;19968;-77
2022/02/12 02:35:53;;;;;;;;;;;;;;;;;;5046273;28;19976;-76
2022/02/12 02:38:20;;;;;;;;;;;;;;;;;;5045573;28;19964;-76
2022/02/12 02:40:46;;;;;;;;;;;;;;;;;;5045356;28;20029;-76
2022/02/12 02:43:12;;;;;;;;;;;;;;;;;;5043396;28;20364;-76
2022/02/12 02:45:38;;;;;;;;;;;;;;;;;;5044070;28;19968;-78
2022/02/12 02:48:05;;;;;;;;;;;;;;;;;;5025387;28;19912;-77
2022/02/12 02:56:02;;;;;;;;;;;;;;;;;;5046592;28;19956;-77
2022/02/12 02:58:28;;;;;;;;;;;;;;;;;;5042487;28;19971;-78
2022/02/12 03:00:55;;;;;;;;;;;;;;;;;;5042425;28;19956;-77
2022/02/12 03:03:21;;;;;;;;;;;;;;;;;;5042095;28;19960;-77
2022/02/12 03:05:47;;;;;;;;;;;;;;;;;;5038631;28;20039;-76
2022/02/12 03:08:13;;;;;;;;;;;;;;;;;;5041057;28;19960;-76
2022/02/12 03:10:39;;;;;;;;;;;;;;;;;;5043749;28;20116;-78
2022/02/12 03:13:06;;;;;;;;;;;;;;;;;;5040634;28;20000;-77
2022/02/12 03:15:32;;;;;;;;;;;;;;;;;;5045706;28;19944;-77
2022/02/12 03:17:58;;;;;;;;;;;;;;;;;;5041698;28;20471;-76
2022/02/12 03:20:25;;;;;;;;;;;;;;;;;;5045176;28;19964;-77
2022/02/12 03:22:51;;;;;;;;;;;;;;;;;;5040624;28;19960;-76
2022/02/12 03:25:17;;;;;;;;;;;;;;;;;;5039446;28;19944;-76
2022/02/12 03:27:43;;;;;;;;;;;;;;;;;;5018880;28;20293;-77
2022/02/12 03:30:09;;;;;;;;;;;;;;;;;;5024373;28;19964;-77
2022/02/12 03:32:35;;;;;;;;;;;;;;;;;;5039237;28;19963;-77
2022/02/12 03:35:02;;;;;;;;;;;;;;;;;;5042323;28;20042;-77
2022/02/12 03:37:28;;;;;;;;;;;;;;;;;;5042631;28;19975;-77
2022/02/12 03:39:54;;;;;;;;;;;;;;;;;;5038082;28;19960;-76
2022/02/12 03:42:20;;;;;;;;;;;;;;;;;;5041459;28;19987;-77
2022/02/12 03:44:47;;;;;;;;;;;;;;;;;;5043452;28;20352;-75
2022/02/12 03:47:13;;;;;;;;;;;;;;;;;;5046119;28;19957;-77
2022/02/12 03:49:39;;;;;;;;;;;;;;;;;;5026005;28;20450;-77
2022/02/12 03:52:05;;;;;;;;;;;;;;;;;;5046050;28;20006;-77
2022/02/12 03:54:31;;;;;;;;;;;;;;;;;;5022369;28;19978;-77
2022/02/12 03:56:58;;;;;;;;;;;;;;;;;;5040021;28;19956;-77
2022/02/12 03:59:24;;;;;;;;;;;;;;;;;;5041427;28;20313;-77
2022/02/12 04:01:50;;;;;;;;;;;;;;;;;;5041154;28;20450;-78
2022/02/12 04:04:16;;;;;;;;;;;;;;;;;;5027311;28;19952;-77
2022/02/12 04:06:42;;;;;;;;;;;;;;;;;;5047977;28;20491;-77
2022/02/12 04:09:08;;;;;;;;;;;;;;;;;;5041523;28;19971;-77
2022/02/12 04:11:35;;;;;;;;;;;;;;;;;;5042539;28;20337;-77
2022/02/12 04:14:02;;;;;;;;;;;;;;;;;;5038077;28;20044;-77
2022/02/12 04:16:28;;;;;;;;;;;;;;;;;;5038961;28;19928;-78
2022/02/12 04:19:03;;;;;;;;;;;;;;;;;;5046229;28;19955;-77
2022/02/12 04:21:33;;;;;;;;;;;;;;;;;;5040341;28;19925;-78
2022/02/12 04:23:59;;;;;;;;;;;;;;;;;;5047512;28;20027;-77
2022/02/12 04:26:25;;;;;;;;;;;;;;;;;;5043237;28;20005;-78
2022/02/12 04:28:51;;;;;;;;;;;;;;;;;;5024338;28;20411;-77
2022/02/12 04:31:18;;;;;;;;;;;;;;;;;;5038323;28;19952;-77
2022/02/12 04:33:44;;;;;;;;;;;;;;;;;;5043487;28;19971;-77
2022/02/12 04:36:10;;;;;;;;;;;;;;;;;;5023252;28;19948;-77
2022/02/12 04:38:36;;;;;;;;;;;;;;;;;;5039851;28;20367;-78
2022/02/12 04:41:03;;;;;;;;;;;;;;;;;;5048364;28;19956;-77
2022/02/12 04:43:29;;;;;;;;;;;;;;;;;;5021592;28;19948;-78
2022/02/12 04:45:56;;;;;;;;;;;;;;;;;;5037243;28;20368;-78
2022/02/12 04:48:22;;;;;;;;;;;;;;;;;;5039154;28;20336;-77
2022/02/12 04:50:48;;;;;;;;;;;;;;;;;;5017263;28;20289;-77
2022/02/12 04:53:14;;;;;;;;;;;;;;;;;;5019507;28;19952;-78
2022/02/12 04:55:40;;;;;;;;;;;;;;;;;;5022660;28;19967;-77
2022/02/12 04:58:07;;;;;;;;;;;;;;;;;;5038449;28;19956;-78
2022/02/12 05:00:33;;;;;;;;;;;;;;;;;;5040218;28;19964;-78
2022/02/12 05:02:59;;;;;;;;;;;;;;;;;;5040812;28;20114;-77
2022/02/12 05:05:25;;;;;;;;;;;;;;;;;;5039341;28;19963;-78
2022/02/12 05:07:51;;;;;;;;;;;;;;;;;;5042472;28;20344;-76
2022/02/12 05:10:17;;;;;;;;;;;;;;;;;;5038294;28;19964;-76
2022/02/12 05:12:44;;;;;;;;;;;;;;;;;;5038981;28;19954;-75
2022/02/12 05:15:10;;;;;;;;;;;;;;;;;;5037509;28;19963;-76
2022/02/12 05:17:36;;;;;;;;;;;;;;;;;;5042682;28;19959;-75
2022/02/12 05:20:02;;;;;;;;;;;;;;;;;;5043633;28;19999;-76
2022/02/12 05:22:29;;;;;;;;;;;;;;;;;;5042188;28;20356;-76
2022/02/12 05:24:55;;;;;;;;;;;;;;;;;;5040189;28;19956;-76
2022/02/12 05:27:22;;;;;;;;;;;;;;;;;;5024440;28;19917;-77
2022/02/12 05:29:48;;;;;;;;;;;;;;;;;;5040943;28;20002;-76
2022/02/12 05:32:14;;;;;;;;;;;;;;;;;;5024582;28;20356;-77
2022/02/12 05:34:40;;;;;;;;;;;;;;;;;;5038262;28;19952;-76
2022/02/12 05:37:07;;;;;;;;;;;;;;;;;;5044764;28;19957;-77
2022/02/12 05:39:33;;;;;;;;;;;;;;;;;;5045062;28;20418;-77
2022/02/12 05:41:59;;;;;;;;;;;;;;;;;;5039387;28;19955;-78
2022/02/12 05:44:25;;;;;;;;;;;;;;;;;;5024893;28;19972;-77
2022/02/12 05:46:51;;;;;;;;;;;;;;;;;;5039628;28;19953;-77
2022/02/12 05:49:17;;;;;;;;;;;;;;;;;;5048443;28;19940;-77
2022/02/12 05:51:44;;;;;;;;;;;;;;;;;;5043535;28;19925;-77
2022/02/12 05:54:10;;;;;;;;;;;;;;;;;;5041132;28;20628;-77
2022/02/12 05:56:36;;;;;;;;;;;;;;;;;;5045925;28;19963;-77
2022/02/12 05:59:03;;;;;;;;;;;;;;;;;;5038705;28;19968;-77
2022/02/12 06:01:29;;;;;;;;;;;;;;;;;;5025498;28;19955;-78
2022/02/12 06:03:56;;;;;;;;;;;;;;;;;;5038259;28;19960;-77
2022/02/12 06:06:22;;;;;;;;;;;;;;;;;;5037745;28;19964;-77
2022/02/12 06:08:48;;;;;;;;;;;;;;;;;;5038825;28;19947;-77
2022/02/12 06:11:14;;;;;;;;;;;;;;;;;;5038280;28;19961;-78
2022/02/12 06:13:40;;;;;;;;;;;;;;;;;;5039740;28;19964;-77
2022/02/12 06:16:07;;;;;;;;;;;;;;;;;;5024197;28;19970;-78
2022/02/12 06:18:33;;;;;;;;;;;;;;;;;;5037945;28;19960;-78
2022/02/12 06:20:59;;;;;;;;;;;;;;;;;;5023828;28;20408;-79
2022/02/12 06:23:25;;;;;;;;;;;;;;;;;;5019043;28;19956;-78
2022/02/12 06:25:51;;;;;;;;;;;;;;;;;;5031548;28;20658;-78
2022/02/12 06:28:18;;;;;;;;;;;;;;;;;;5028853;28;19961;-78
2022/02/12 06:30:44;;;;;;;;;;;;;;;;;;5030760;28;19964;-78
2022/02/12 06:33:10;;;;;;;;;;;;;;;;;;5043191;28;19956;-78
2022/02/12 06:35:36;;;;;;;;;;;;;;;;;;5047442;28;20512;-78
2022/02/12 06:38:02;;;;;;;;;;;;;;;;;;5044370;28;20448;-78
2022/02/12 06:40:29;;;;;;;;;;;;;;;;;;5047287;28;19960;-78
2022/02/12 06:42:55;;;;;;;;;;;;;;;;;;5025610;28;20427;-78
2022/02/12 06:45:21;;;;;;;;;;;;;;;;;;5045239;28;19956;-78
2022/02/12 06:47:47;;;;;;;;;;;;;;;;;;5027880;28;20424;-77
2022/02/12 06:50:13;;;;;;;;;;;;;;;;;;5023548;28;19940;-78
2022/02/12 06:52:39;;;;;;;;;;;;;;;;;;5027994;28;20002;-78
2022/02/12 06:55:06;;;;;;;;;;;;;;;;;;5040087;28;19948;-78
2022/02/12 06:57:32;;;;;;;;;;;;;;;;;;5045263;28;20437;-78
2022/02/12 06:59:58;;;;;;;;;;;;;;;;;;5048631;28;19975;-77
2022/02/12 07:02:24;;;;;;;;;;;;;;;;;;5043020;28;19955;-78
2022/02/12 07:04:50;;;;;;;;;;;;;;;;;;5043811;28;19952;-78
2022/02/12 07:07:16;;;;;;;;;;;;;;;;;;5045951;28;20473;-77
2022/02/12 07:09:43;;;;;;;;;;;;;;;;;;5028921;28;19925;-78
2022/02/12 07:12:09;;;;;;;;;;;;;;;;;;5028197;28;20373;-77
2022/02/12 07:14:35;;;;;;;;;;;;;;;;;;5041345;28;19959;-78
2022/02/12 07:17:03;;;;;;;;;;;;;;;;;;5038187;28;19964;-78
2022/02/12 07:19:29;;;;;;;;;;;;;;;;;;5044062;28;19960;-79
2022/02/12 07:21:55;;;;;;;;;;;;;;;;;;5026124;28;19956;-79
2022/02/12 07:24:21;;;;;;;;;;;;;;;;;;5038476;28;19956;-78
2022/02/12 07:26:51;;;;;;;;;;;;;;;;;;5025366;28;19949;-77
2022/02/12 07:29:17;;;;;;;;;;;;;;;;;;5042850;28;20384;-79
2022/02/12 07:31:44;;;;;;;;;;;;;;;;;;5037063;28;19968;-82
2022/02/12 07:34:14;;;;;;;;;;;;;;;;;;5045394;28;19956;-79
2022/02/12 07:36:40;;;;;;;;;;;;;;;;;;5020258;28;19957;-80
2022/02/12 07:39:06;;;;;;;;;;;;;;;;;;5035132;28;19960;-80
2022/02/12 07:41:35;;;;;;;;;;;;;;;;;;5048923;28;19967;-80
2022/02/12 07:44:01;;;;;;;;;;;;;;;;;;5045598;28;20102;-79
2022/02/12 07:46:27;;;;;;;;;;;;;;;;;;5046812;28;20491;-78
2022/02/12 07:48:54;;;;;;;;;;;;;;;;;;5037450;28;19959;-79
2022/02/12 07:51:20;;;;;;;;;;;;;;;;;;5036035;28;19955;-81
2022/02/12 07:53:46;;;;;;;;;;;;;;;;;;5027427;28;19996;-80
2022/02/12 07:56:12;;;;;;;;;;;;;;;;;;5029380;28;19963;-76
2022/02/12 07:58:39;;;;;;;;;;;;;;;;;;5045589;28;19960;-77
2022/02/12 08:01:05;;;;;;;;;;;;;;;;;;5025148;28;19964;-77
2022/02/12 08:03:31;;;;;;;;;;;;;;;;;;5043500;28;19974;-77
2022/02/12 08:05:57;;;;;;;;;;;;;;;;;;5041170;28;19971;-79
2022/02/12 08:08:23;;;;;;;;;;;;;;;;;;5026202;28;19925;-80
2022/02/12 08:13:34;;;;;;;;;;;;;;;;;;5037439;28;19956;-79
2022/02/12 08:16:01;;;;;;;;;;;;;;;;;;5038324;28;19960;-78
2022/02/12 08:18:27;;;;;;;;;;;;;;;;;;5043627;28;19960;-78
2022/02/12 08:20:53;;;;;;;;;;;;;;;;;;5043835;28;23667;-78
2022/02/12 08:23:19;;;;;;;;;;;;;;;;;;5043110;28;19960;-79
2022/02/12 08:25:45;;;;;;;;;;;;;;;;;;5042534;28;20031;-79
2022/02/12 08:28:12;;;;;;;;;;;;;;;;;;5039936;28;19975;-78
2022/02/12 08:30:38;;;;;;;;;;;;;;;;;;5021744;28;19948;-79
2022/02/12 08:33:07;;;;;;;;;;;;;;;;;;5041616;28;19998;-79
2022/02/12 08:35:33;;;;;;;;;;;;;;;;;;5042129;28;19956;-79
2022/02/12 08:37:59;;;;;;;;;;;;;;;;;;5042011;28;19940;-79
2022/02/12 08:40:25;;;;;;;;;;;;;;;;;;5038597;28;19972;-79
2022/02/12 08:42:53;;;;;;;;;;;;;;;;;;5037693;28;19975;-78
2022/02/12 08:45:19;;;;;;;;;;;;;;;;;;5039801;28;19936;-79
2022/02/12 08:47:45;;;;;;;;;;;;;;;;;;5033892;28;20021;-79
2022/02/12 08:50:12;;;;;;;;;;;;;;;;;;5042957;28;19948;-79
2022/02/12 08:52:40;;;;;;;;;;;;;;;;;;5019184;28;19968;-78
2022/02/12 08:55:06;;;;;;;;;;;;;;;;;;5041673;28;19956;-78
2022/02/12 08:57:32;;;;;;;;;;;;;;;;;;5042019;28;20404;-76
2022/02/12 08:59:58;;;;;;;;;;;;;;;;;;5021700;28;20711;-77
2022/02/12 09:02:25;;;;;;;;;;;;;;;;;;5039925;28;20178;-77
2022/02/12 09:04:51;;;;;;;;;;;;;;;;;;5040566;28;19956;-77
2022/02/12 09:07:17;;;;;;;;;;;;;;;;;;5045921;28;20360;-77
2022/02/12 09:09:43;;;;;;;;;;;;;;;;;;5015815;28;20321;-77
2022/02/12 09:12:10;;;;;;;;;;;;;;;;;;5026866;28;19964;-77
2022/02/12 09:14:36;;;;;;;;;;;;;;;;;;5042885;28;19924;-77
2022/02/12 09:17:02;;;;;;;;;;;;;;;;;;5047542;28;19955;-77
2022/02/12 09:19:29;;;;;;;;;;;;;;;;;;5023201;28;19961;-77
2022/02/12 09:21:55;;;;;;;;;;;;;;;;;;5040100;28;19957;-77
2022/02/12 09:24:21;;;;;;;;;;;;;;;;;;5039706;28;19990;-77
2022/02/12 09:26:47;;;;;;;;;;;;;;;;;;5043114;28;19944;-78
2022/02/12 09:29:13;;;;;;;;;;;;;;;;;;5043132;28;20385;-77
2022/02/12 09:31:40;;;;;;;;;;;;;;;;;;5042137;28;20384;-77
2022/02/12 09:34:06;;;;;;;;;;;;;;;;;;5046238;28;20011;-78
2022/02/12 09:36:32;;;;;;;;;;;;;;;;;;5021745;28;20406;-78
2022/02/12 09:38:58;;;;;;;;;;;;;;;;;;5043317;28;20013;-77
2022/02/12 09:41:27;;;;;;;;;;;;;;;;;;5040287;28;20365;-76
2022/02/12 09:43:53;;;;;;;;;;;;;;;;;;5042279;28;19948;-77
2022/02/12 09:46:19;;;;;;;;;;;;;;;;;;5039856;28;20600;-76
2022/02/12 09:48:46;;;;;;;;;;;;;;;;;;5040039;28;20009;-77
2022/02/12 09:51:13;;;;;;;;;;;;;;;;;;5033667;28;21328;-78
2022/02/12 09:53:39;;;;;;;;;;;;;;;;;;5040988;28;19920;-78
2022/02/12 09:56:05;;;;;;;;;;;;;;;;;;5036275;28;20011;-76
2022/02/12 09:58:31;;;;;;;;;;;;;;;;;;5023601;28;19967;-78
2022/02/12 10:00:57;;;;;;;;;;;;;;;;;;5037260;28;20337;-76
2022/02/12 10:03:24;;;;;;;;;;;;;;;;;;5048082;28;19947;-77
2022/02/12 10:05:51;;;;;;;;;;;;;;;;;;5042164;28;19960;-76
2022/02/12 10:08:17;;;;;;;;;;;;;;;;;;5047349;28;19960;-80
2022/02/12 10:10:43;;;;;;;;;;;;;;;;;;5043828;28;19924;-78
2022/02/12 10:13:09;;;;;;;;;;;;;;;;;;5045496;28;19956;-78
2022/02/12 10:15:35;;;;;;;;;;;;;;;;;;5040036;28;20357;-77
2022/02/12 10:18:02;;;;;;;;;;;;;;;;;;5046254;28;19960;-77
2022/02/12 10:20:29;;;;;;;;;;;;;;;;;;5039971;28;20397;-77
2022/02/12 10:22:55;;;;;;;;;;;;;;;;;;5044178;28;20014;-77
2022/02/12 10:25:21;;;;;;;;;;;;;;;;;;5007828;28;19956;-79
2022/02/12 10:27:49;;;;;;;;;;;;;;;;;;5023775;28;19949;-78
2022/02/12 10:30:15;;;;;;;;;;;;;;;;;;5034056;28;21416;-75
2022/02/12 10:32:41;;;;;;;;;;;;;;;;;;5046402;28;19952;-74
2022/02/12 10:35:08;;;;;;;;;;;;;;;;;;5041093;28;19963;-74
2022/02/12 10:37:34;;;;;;;;;;;;;;;;;;5043550;28;19960;-75
2022/02/12 10:40:00;;;;;;;;;;;;;;;;;;5038408;28;20063;-75
2022/02/12 10:42:26;;;;;;;;;;;;;;;;;;5040072;28;20441;-75
2022/02/12 10:44:52;;;;;;;;;;;;;;;;;;5037964;28;19963;-75
2022/02/12 10:47:19;;;;;;;;;;;;;;;;;;5043456;28;19976;-75
2022/02/12 10:49:45;;;;;;;;;;;;;;;;;;5042927;28;20360;-77
2022/02/12 10:52:11;;;;;;;;;;;;;;;;;;5028838;28;19974;-73
2022/02/12 10:54:37;;;;;;;;;;;;;;;;;;5030918;28;19971;-75
2022/02/12 10:57:03;;;;;;;;;;;;;;;;;;5045059;28;20495;-68
2022/02/12 10:59:31;;;;;;;;;;;;;;;;;;5053057;28;19959;-70
2022/02/12 11:01:57;;;;;;;;;;;;;;;;;;5045449;28;19960;-70
2022/02/12 11:04:23;;;;;;;;;;;;;;;;;;5044580;28;19959;-72
2022/02/12 11:06:50;;;;;;;;;;;;;;;;;;5043177;28;19944;-73
2022/02/12 11:09:16;;;;;;;;;;;;;;;;;;5039640;28;19964;-73
2022/02/12 11:11:43;;;;;;;;;;;;;;;;;;5019651;28;20299;-72
2022/02/12 11:14:09;;;;;;;;;;;;;;;;;;5035527;28;19963;-72
2022/02/12 11:16:36;;;;;;;;;;;;;;;;;;5025057;28;19990;-71
2022/02/12 11:19:03;;;;;;;;;;;;;;;;;;5037978;28;19944;-71
2022/02/12 11:21:29;;;;;;;;;;;;;;;;;;5032908;28;19947;-71
2022/02/12 11:23:55;;;;;;;;;;;;;;;;;;5040975;28;19956;-72
2022/02/12 11:26:21;;;;;;;;;;;;;;;;;;5036863;28;19987;-71
2022/02/12 11:28:48;;;;;;;;;;;;;;;;;;5034724;28;20402;-72
2022/02/12 11:31:15;;;;;;;;;;;;;;;;;;5037995;28;19960;-71
2022/02/12 11:33:41;;;;;;;;;;;;;;;;;;5032679;28;19957;-72
2022/02/12 11:36:07;;;;;;;;;;;;;;;;;;5037136;28;19961;-71
2022/02/12 11:38:33;;;;;;;;;;;;;;;;;;5035959;28;19973;-71
2022/02/12 11:41:00;;;;;;;;;;;;;;;;;;5037387;28;20578;-72
2022/02/12 11:43:26;;;;;;;;;;;;;;;;;;5035360;28;19968;-72
2022/02/12 11:45:52;;;;;;;;;;;;;;;;;;5038260;28;19968;-72
2022/02/12 11:48:18;;;;;;;;;;;;;;;;;;5040565;28;19948;-71
2022/02/12 11:50:44;;;;;;;;;;;;;;;;;;5042959;28;19997;-70
2022/02/12 11:53:11;;;;;;;;;;;;;;;;;;5039150;28;19971;-71
2022/02/12 11:55:38;;;;;;;;;;;;;;;;;;5039904;28;19973;-71
2022/02/12 11:58:05;;;;;;;;;;;;;;;;;;5036881;28;19953;-72
2022/02/12 12:00:31;;;;;;;;;;;;;;;;;;5042139;28;19995;-70
2022/02/12 12:02:57;;;;;;;;;;;;;;;;;;5037806;28;19960;-71
2022/02/12 12:05:23;;;;;;;;;;;;;;;;;;5040033;28;19960;-71
2022/02/12 12:07:50;;;;;;;;;;;;;;;;;;5035777;28;20282;-72
2022/02/12 12:10:16;;;;;;;;;;;;;;;;;;5040112;28;19959;-71
2022/02/12 12:12:42;;;;;;;;;;;;;;;;;;5036668;28;19949;-71
2022/02/12 12:15:08;;;;;;;;;;;;;;;;;;5038329;28;24469;-71
2022/02/12 12:17:34;;;;;;;;;;;;;;;;;;5035718;28;19967;-71
2022/02/12 12:20:01;;;;;;;;;;;;;;;;;;5041687;28;19962;-72
2022/02/12 12:22:27;;;;;;;;;;;;;;;;;;5037974;28;19972;-70
2022/02/12 12:24:53;;;;;;;;;;;;;;;;;;5035649;28;20564;-69
2022/02/12 12:27:19;;;;;;;;;;;;;;;;;;5042165;28;19971;-68
2022/02/12 12:32:31;;;;;;;;;;;;;;;;;;5036457;28;20048;-69
2022/02/12 12:35:00;;;;;;;;;;;;;;;;;;5037167;28;19960;-70
2022/02/12 12:37:26;;;;;;;;;;;;;;;;;;5036300;28;19983;-68
2022/02/12 12:39:52;;;;;;;;;;;;;;;;;;5037093;28;19980;-68
2022/02/12 12:42:18;;;;;;;;;;;;;;;;;;5027040;28;19948;-69
2022/02/12 12:44:45;;;;;;;;;;;;;;;;;;5041716;28;19952;-69
2022/02/12 12:47:11;;;;;;;;;;;;;;;;;;5041517;28;19963;-69
2022/02/12 12:49:39;;;;;;;;;;;;;;;;;;5041540;28;19960;-68
2022/02/12 12:52:05;;;;;;;;;;;;;;;;;;5041368;28;19952;-68
2022/02/12 12:54:32;;;;;;;;;;;;;;;;;;5022083;28;19964;-68
2022/02/12 12:56:58;;;;;;;;;;;;;;;;;;5024008;28;19952;-68
2022/02/12 12:59:24;;;;;;;;;;;;;;;;;;5045471;28;19917;-68
2022/02/12 13:01:50;;;;;;;;;;;;;;;;;;5040716;28;20029;-68
2022/02/12 13:04:17;;;;;;;;;;;;;;;;;;5040133;28;19944;-68
2022/02/12 13:06:43;;;;;;;;;;;;;;;;;;5041745;28;20498;-68
2022/02/12 13:09:09;;;;;;;;;;;;;;;;;;5037366;28;19987;-69
2022/02/12 13:11:35;;;;;;;;;;;;;;;;;;5041229;28;19964;-68
2022/02/12 13:14:01;;;;;;;;;;;;;;;;;;5042126;28;19960;-68
2022/02/12 13:16:27;;;;;;;;;;;;;;;;;;5043557;28;19980;-69
2022/02/12 13:18:54;;;;;;;;;;;;;;;;;;5048417;28;19975;-71
2022/02/12 13:21:21;;;;;;;;;;;;;;;;;;5038474;28;19959;-68
2022/02/12 13:23:47;;;;;;;;;;;;;;;;;;5042601;28;19957;-68
2022/02/12 13:26:13;;;;;;;;;;;;;;;;;;5043353;28;20486;-68
2022/02/12 13:28:39;;;;;;;;;;;;;;;;;;5044678;28;19963;-68
2022/02/12 13:31:05;;;;;;;;;;;;;;;;;;5044419;28;19956;-69
2022/02/12 13:33:33;;;;;;;;;;;;;;;;;;5040830;28;19967;-68
2022/02/12 13:36:00;;;;;;;;;;;;;;;;;;5043981;28;19971;-69
2022/02/12 13:38:26;;;;;;;;;;;;;;;;;;5045856;28;19952;-69
2022/02/12 13:40:52;;;;;;;;;;;;;;;;;;5040412;28;19979;-69
2022/02/12 13:43:19;;;;;;;;;;;;;;;;;;5044572;28;19967;-69
2022/02/12 13:45:45;;;;;;;;;;;;;;;;;;5043104;28;20446;-69
2022/02/12 13:48:12;;;;;;;;;;;;;;;;;;5042949;28;20029;-68
2022/02/12 13:50:41;;;;;;;;;;;;;;;;;;5046622;28;19952;-69
2022/02/12 13:53:07;;;;;;;;;;;;;;;;;;5043224;28;19952;-69
2022/02/12 13:55:33;;;;;;;;;;;;;;;;;;5048294;28;19944;-69
2022/02/12 13:58:01;;;;;;;;;;;;;;;;;;5040755;28;19994;-69
2022/02/12 14:00:27;;;;;;;;;;;;;;;;;;5046173;28;20017;-69
2022/02/12 14:02:53;;;;;;;;;;;;;;;;;;5040476;28;19963;-69
2022/02/12 14:05:20;;;;;;;;;;;;;;;;;;5043842;28;19956;-69
2022/02/12 14:07:46;;;;;;;;;;;;;;;;;;5045394;28;19998;-69
2022/02/12 14:10:12;;;;;;;;;;;;;;;;;;5043750;28;19960;-68
2022/02/12 14:12:38;;;;;;;;;;;;;;;;;;5026397;28;19996;-67
2022/02/12 14:15:05;;;;;;;;;;;;;;;;;;5046019;28;19960;-69
2022/02/12 14:17:31;;;;;;;;;;;;;;;;;;5042816;28;21282;-68
2022/02/12 14:19:57;;;;;;;;;;;;;;;;;;5041365;28;19960;-71
2022/02/12 14:22:23;;;;;;;;;;;;;;;;;;5022382;28;19936;-69
2022/02/12 14:24:49;;;;;;;;;;;;;;;;;;5044488;28;19948;-71
2022/02/12 14:27:16;;;;;;;;;;;;;;;;;;5049665;28;20014;-70
2022/02/12 14:29:42;;;;;;;;;;;;;;;;;;5039215;28;20258;-70
2022/02/12 14:32:08;;;;;;;;;;;;;;;;;;5043795;28;20390;-71
2022/02/12 14:34:35;;;;;;;;;;;;;;;;;;5036189;28;19920;-70
2022/02/12 14:37:01;;;;;;;;;;;;;;;;;;5039106;28;19967;-70
2022/02/12 14:39:27;;;;;;;;;;;;;;;;;;5024856;28;20470;-70
2022/02/12 14:41:53;;;;;;;;;;;;;;;;;;5038864;28;19956;-71
2022/02/12 14:44:20;;;;;;;;;;;;;;;;;;5026739;28;19956;-70
2022/02/12 14:46:46;;;;;;;;;;;;;;;;;;5043374;28;20066;-70
2022/02/12 14:49:15;;;;;;;;;;;;;;;;;;5027020;28;19964;-70
2022/02/12 14:51:41;;;;;;;;;;;;;;;;;;5045646;28;20360;-70
2022/02/12 14:54:07;;;;;;;;;;;;;;;;;;5042180;28;19960;-70
2022/02/12 14:56:34;;;;;;;;;;;;;;;;;;5039813;28;19949;-70
2022/02/12 14:59:00;;;;;;;;;;;;;;;;;;5039278;28;19968;-70
2022/02/12 15:01:26;;;;;;;;;;;;;;;;;;5026386;28;19956;-70
2022/02/12 15:03:52;;;;;;;;;;;;;;;;;;5048692;28;19951;-71
2022/02/12 15:06:18;;;;;;;;;;;;;;;;;;5043515;28;19983;-70
2022/02/12 15:08:47;;;;;;;;;;;;;;;;;;5045043;28;19952;-73
2022/02/12 15:11:13;;;;;;;;;;;;;;;;;;5041448;28;20715;-72
2022/02/12 15:13:40;;;;;;;;;;;;;;;;;;5007879;28;20020;-72
2022/02/12 15:16:06;;;;;;;;;;;;;;;;;;5035475;28;19971;-72
2022/02/12 15:18:32;;;;;;;;;;;;;;;;;;5023195;28;20387;-72
2022/02/12 15:21:00;;;;;;;;;;;;;;;;;;5023756;28;19935;-78
2022/02/12 15:23:26;;;;;;;;;;;;;;;;;;5041157;28;19997;-72
2022/02/12 15:25:52;;;;;;;;;;;;;;;;;;5042550;28;19956;-72
2022/02/12 15:28:19;;;;;;;;;;;;;;;;;;5039328;28;19979;-71
2022/02/12 15:30:45;;;;;;;;;;;;;;;;;;5039000;28;19944;-72
2022/02/12 15:33:11;;;;;;;;;;;;;;;;;;5036803;28;19956;-71
2022/02/12 15:35:38;;;;;;;;;;;;;;;;;;5044853;28;19979;-72
2022/02/12 15:38:04;;;;;;;;;;;;;;;;;;5041613;28;19959;-72
2022/02/12 15:40:30;;;;;;;;;;;;;;;;;;5052449;28;19964;-71
2022/02/12 15:42:56;;;;;;;;;;;;;;;;;;5041331;28;19975;-72
2022/02/12 15:45:25;;;;;;;;;;;;;;;;;;5043182;28;20426;-71
2022/02/12 15:47:51;;;;;;;;;;;;;;;;;;5044829;28;19962;-71
2022/02/12 15:50:17;;;;;;;;;;;;;;;;;;5046831;28;19971;-72
2022/02/12 15:52:44;;;;;;;;;;;;;;;;;;5044904;28;19921;-72
2022/02/12 15:55:10;;;;;;;;;;;;;;;;;;5046263;28;19952;-72
2022/02/12 15:57:37;;;;;;;;;;;;;;;;;;5045661;28;19964;-71
2022/02/12 16:00:03;;;;;;;;;;;;;;;;;;5042323;28;20679;-72
2022/02/12 16:02:29;;;;;;;;;;;;;;;;;;5046546;28;19975;-72
2022/02/12 16:04:55;;;;;;;;;;;;;;;;;;5042426;28;19956;-71
2022/02/12 16:07:21;;;;;;;;;;;;;;;;;;5039185;28;19967;-71
2022/02/12 16:09:47;;;;;;;;;;;;;;;;;;5040266;28;19964;-71
2022/02/12 16:12:14;;;;;;;;;;;;;;;;;;5038449;28;19948;-72
2022/02/12 16:14:40;;;;;;;;;;;;;;;;;;5040632;28;20084;-71
2022/02/12 16:17:06;;;;;;;;;;;;;;;;;;5039272;28;19968;-72
2022/02/12 16:19:32;;;;;;;;;;;;;;;;;;5036034;28;20018;-72
2022/02/12 16:21:58;;;;;;;;;;;;;;;;;;5038847;28;19976;-72
2022/02/12 16:24:25;;;;;;;;;;;;;;;;;;5041320;28;19963;-72
2022/02/12 16:26:51;;;;;;;;;;;;;;;;;;5035860;28;19964;-72
2022/02/12 16:29:17;;;;;;;;;;;;;;;;;;5035179;28;19964;-71
2022/02/12 16:31:43;;;;;;;;;;;;;;;;;;5024743;28;20345;-72
2022/02/12 16:34:10;;;;;;;;;;;;;;;;;;5036302;28;20084;-73
2022/02/12 16:36:36;;;;;;;;;;;;;;;;;;5040057;28;20395;-72
2022/02/12 16:39:02;;;;;;;;;;;;;;;;;;5036207;28;19952;-72
2022/02/12 16:41:28;;;;;;;;;;;;;;;;;;5021959;28;20403;-72
2022/02/12 16:43:54;;;;;;;;;;;;;;;;;;5036896;28;19964;-73
2022/02/12 16:46:22;;;;;;;;;;;;;;;;;;5039734;28;19930;-70
2022/02/12 16:48:48;;;;;;;;;;;;;;;;;;5040491;28;19956;-71
2022/02/12 16:51:14;;;;;;;;;;;;;;;;;;5038336;28;20395;-70